Terminal Aerodrome Forecast
Issued by NWS Midland/Odessa, TX

Home | Current Version | Previous Version | Text Only | Print | Product List | Glossary On
Versions: 1 2 3 4 5 6 7 8 9 10 11 12 13 14 15 16 17
765
FTUS44 KMAF 302320
TAFMAF
TAF
KMAF 302320Z 3100/3124 16011KT P6SM SCT120
     FM311600 17012G20KT P6SM SCT120=

USA.gov is the U.S. government's official web portal to all federal, state and local government web resources and services.